createdAt,value
2023-01-29T00:00:11.858Z,-0.11
2023-01-29T00:03:03.217Z,-0.08
2023-01-29T00:05:31.821Z,-0.06
2023-01-29T00:07:59.981Z,-0.04
2023-01-29T00:10:28.192Z,-0.02
2023-01-29T00:12:56.366Z,0.01
2023-01-29T00:15:24.586Z,0.01
2023-01-29T00:17:52.764Z,-0.00
2023-01-29T00:20:20.974Z,-0.01
2023-01-29T00:22:49.554Z,0.00
2023-01-29T00:25:17.713Z,0.01
2023-01-29T00:27:45.948Z,0.03
2023-01-29T00:30:16.535Z,0.05
2023-01-29T00:32:45.936Z,0.07
2023-01-29T00:35:14.041Z,0.08
2023-01-29T00:37:42.581Z,0.10
2023-01-29T00:40:11.603Z,0.12
2023-01-29T00:42:58.334Z,0.13
2023-01-29T00:45:26.484Z,0.15
2023-01-29T00:47:54.651Z,0.16
2023-01-29T00:50:22.773Z,0.18
2023-01-29T00:52:52.934Z,0.20
2023-01-29T00:55:21.219Z,0.21
2023-01-29T00:57:49.880Z,0.23
2023-01-29T01:00:19.321Z,0.25
2023-01-29T01:03:05.858Z,0.26
2023-01-29T01:05:34.986Z,0.27
2023-01-29T01:08:03.425Z,0.28
2023-01-29T01:10:33.378Z,0.29
2023-01-29T01:13:05.442Z,0.29
2023-01-29T01:15:40.110Z,0.29
2023-01-29T01:18:08.233Z,0.30
2023-01-29T01:20:36.662Z,0.30
2023-01-29T01:23:05.414Z,0.29
2023-01-29T01:25:33.847Z,0.28
2023-01-29T01:28:02.114Z,0.25
2023-01-29T01:30:30.263Z,0.22
2023-01-29T01:32:58.364Z,0.21
2023-01-29T01:35:26.619Z,0.19
2023-01-29T01:37:54.868Z,0.19
2023-01-29T01:40:25.571Z,0.20
2023-01-29T01:42:57.114Z,0.30
2023-01-29T01:45:35.731Z,0.37
2023-01-29T01:48:27.402Z,0.40
2023-01-29T01:51:06.520Z,0.46
2023-01-29T01:53:45.033Z,0.51
2023-01-29T01:56:21.383Z,0.57
2023-01-29T01:58:55.561Z,0.62
2023-01-29T02:01:29.942Z,0.69
2023-01-29T02:04:26.282Z,0.73
2023-01-29T02:07:14.543Z,0.79
2023-01-29T02:09:52.617Z,0.85
2023-01-29T02:12:21.628Z,0.90
2023-01-29T02:14:51.931Z,0.94
2023-01-29T02:17:20.668Z,0.97
2023-01-29T02:20:12.101Z,1.01
2023-01-29T02:22:56.100Z,1.06
2023-01-29T02:26:16.551Z,1.08
2023-01-29T02:29:22.554Z,1.09
2023-01-29T02:32:54.797Z,1.09
2023-01-29T02:35:30.016Z,1.12
2023-01-29T02:38:24.426Z,1.15
2023-01-29T02:41:18.122Z,1.18
2023-01-29T02:44:11.589Z,1.15
2023-01-29T02:47:05.496Z,1.11
2023-01-29T02:49:46.049Z,1.11
2023-01-29T02:52:31.057Z,1.09
2023-01-29T02:55:40.263Z,1.08
2023-01-29T02:58:33.297Z,1.07
2023-01-29T03:01:30.298Z,1.02
2023-01-29T03:04:06.273Z,0.95
2023-01-29T03:06:52.076Z,0.94
2023-01-29T03:09:33.814Z,0.96
2023-01-29T03:12:29.216Z,0.95
2023-01-29T03:15:12.509Z,0.95
2023-01-29T03:17:58.189Z,0.96
2023-01-29T03:20:35.648Z,0.96
2023-01-29T03:23:15.246Z,1.00
2023-01-29T03:26:02.956Z,1.01
2023-01-29T03:28:51.762Z,1.04
2023-01-29T03:31:39.593Z,1.04
2023-01-29T03:34:24.238Z,1.07
2023-01-29T03:36:59.907Z,1.09
2023-01-29T03:39:29.845Z,1.09
2023-01-29T03:42:30.287Z,1.09
2023-01-29T03:45:09.748Z,1.04
2023-01-29T03:47:47.345Z,0.98
2023-01-29T03:50:56.629Z,0.96
2023-01-29T03:53:39.730Z,0.97
2023-01-29T03:56:27.701Z,0.97
2023-01-29T03:59:03.536Z,0.98
2023-01-29T04:01:58.403Z,1.01
2023-01-29T04:04:32.157Z,1.03
2023-01-29T04:07:24.452Z,1.04
2023-01-29T04:10:07.348Z,1.05
2023-01-29T04:12:52.572Z,1.06
2023-01-29T04:15:24.661Z,1.05
2023-01-29T04:17:55.894Z,1.03
2023-01-29T04:21:01.787Z,1.01
2023-01-29T04:23:29.979Z,1.01
2023-01-29T04:26:25.451Z,1.03
2023-01-29T04:29:29.813Z,1.02
2023-01-29T04:32:13.692Z,1.00
2023-01-29T04:35:03.592Z,1.00
2023-01-29T04:38:07.013Z,1.00
2023-01-29T04:41:08.451Z,1.00
2023-01-29T04:43:53.342Z,1.03
2023-01-29T04:46:29.854Z,1.04
2023-01-29T04:49:30.265Z,1.02
2023-01-29T04:51:58.325Z,0.99
2023-01-29T04:55:05.213Z,0.95
2023-01-29T04:58:01.287Z,0.91
2023-01-29T05:00:44.795Z,0.89
2023-01-29T05:03:14.733Z,0.86
2023-01-29T05:05:49.109Z,0.83
2023-01-29T05:08:23.036Z,0.81
2023-01-29T05:10:54.240Z,0.78
2023-01-29T05:13:24.135Z,0.73
2023-01-29T05:16:42.167Z,0.72
2023-01-29T05:19:16.146Z,0.65
2023-01-29T05:21:48.191Z,0.60
2023-01-29T05:24:20.971Z,0.55
2023-01-29T05:27:11.103Z,0.53
2023-01-29T05:29:47.096Z,0.49
2023-01-29T05:32:16.070Z,0.45
2023-01-29T05:34:44.189Z,0.42
2023-01-29T05:37:12.257Z,0.39
2023-01-29T05:39:40.374Z,0.36
2023-01-29T05:42:08.487Z,0.33
2023-01-29T05:44:36.622Z,0.30
2023-01-29T05:47:04.795Z,0.27
2023-01-29T05:49:33.021Z,0.23
2023-01-29T05:52:01.194Z,0.19
2023-01-29T05:54:29.303Z,0.17
2023-01-29T05:56:57.467Z,0.14
2023-01-29T05:59:25.639Z,0.11
2023-01-29T06:01:53.790Z,0.08
2023-01-29T06:04:21.909Z,0.06
2023-01-29T06:06:49.985Z,0.03
2023-01-29T06:09:18.074Z,0.01
2023-01-29T06:11:46.139Z,-0.01
2023-01-29T06:14:14.240Z,-0.03
2023-01-29T06:16:42.345Z,-0.05
2023-01-29T06:19:10.447Z,-0.04
2023-01-29T06:21:38.563Z,-0.06
2023-01-29T06:24:07.233Z,-0.08
2023-01-29T06:26:35.356Z,-0.08
2023-01-29T06:29:03.470Z,-0.10
2023-01-29T06:31:38.754Z,-0.11
2023-01-29T06:34:08.683Z,-0.11
2023-01-29T06:36:36.928Z,-0.10
2023-01-29T06:39:05.169Z,-0.11
2023-01-29T06:41:33.585Z,-0.11
2023-01-29T06:44:01.868Z,-0.10
2023-01-29T06:46:30.177Z,-0.08
2023-01-29T06:49:02.495Z,-0.08
2023-01-29T06:51:30.726Z,-0.07
2023-01-29T06:53:58.839Z,-0.07
2023-01-29T06:56:27.254Z,-0.08
2023-01-29T06:58:55.385Z,-0.08
2023-01-29T07:01:35.117Z,-0.08
2023-01-29T07:04:04.670Z,-0.10
2023-01-29T07:06:33.421Z,-0.07
2023-01-29T07:09:02.092Z,-0.02
2023-01-29T07:11:30.599Z,0.03
2023-01-29T07:13:58.726Z,0.07
2023-01-29T07:16:26.989Z,0.11
2023-01-29T07:18:55.123Z,0.13
2023-01-29T07:21:23.412Z,0.16
2023-01-29T07:23:51.580Z,0.18
2023-01-29T07:26:19.864Z,0.18
2023-01-29T07:28:47.960Z,0.18
2023-01-29T07:31:16.374Z,0.20
2023-01-29T07:33:44.800Z,0.19
2023-01-29T07:36:15.871Z,0.18
2023-01-29T07:38:44.007Z,0.16
2023-01-29T07:41:12.710Z,0.15
2023-01-29T07:43:40.878Z,0.14
2023-01-29T07:46:09.176Z,0.13
2023-01-29T07:48:37.658Z,0.12
2023-01-29T07:51:06.080Z,0.12
2023-01-29T07:53:34.233Z,0.13
2023-01-29T07:56:03.447Z,0.14
2023-01-29T07:58:31.718Z,0.17
2023-01-29T08:00:59.825Z,0.19
2023-01-29T08:03:27.928Z,0.23
2023-01-29T08:05:58.053Z,0.27
2023-01-29T08:08:26.319Z,0.28
2023-01-29T08:10:54.705Z,0.33
2023-01-29T08:13:22.812Z,0.35
2023-01-29T08:15:50.912Z,0.38
2023-01-29T08:18:19.011Z,0.41
2023-01-29T08:20:47.134Z,0.41
2023-01-29T08:23:16.610Z,0.43
2023-01-29T08:25:44.872Z,0.46
2023-01-29T08:28:13.162Z,0.47
2023-01-29T08:30:41.495Z,0.48
2023-01-29T08:33:09.938Z,0.49
2023-01-29T08:35:38.111Z,0.51
2023-01-29T08:38:06.220Z,0.54
2023-01-29T08:40:35.586Z,0.56
2023-01-29T08:43:08.767Z,0.58
2023-01-29T08:45:41.572Z,0.60
2023-01-29T08:48:11.113Z,0.63
2023-01-29T08:50:39.478Z,0.64
2023-01-29T08:53:09.554Z,0.67
2023-01-29T08:55:41.918Z,0.69
2023-01-29T08:58:12.452Z,0.72
2023-01-29T09:00:40.606Z,0.76
2023-01-29T09:03:09.914Z,0.77
2023-01-29T09:05:40.004Z,0.80
2023-01-29T09:08:09.663Z,0.81
2023-01-29T09:10:37.816Z,0.81
2023-01-29T09:13:05.958Z,0.83
2023-01-29T09:15:34.056Z,0.85
2023-01-29T09:18:05.755Z,0.87
2023-01-29T09:20:34.269Z,0.89
2023-01-29T09:23:10.924Z,0.90
2023-01-29T09:25:39.069Z,0.91
2023-01-29T09:28:07.183Z,0.93
2023-01-29T09:30:37.906Z,0.95
2023-01-29T09:33:07.554Z,0.99
2023-01-29T09:35:37.166Z,1.00
2023-01-29T09:38:05.254Z,1.02
2023-01-29T09:40:41.223Z,1.06
2023-01-29T09:43:53.817Z,1.11
2023-01-29T09:46:52.876Z,1.16
2023-01-29T09:49:41.686Z,1.17
2023-01-29T09:52:22.698Z,1.19
2023-01-29T09:55:50.447Z,1.23
2023-01-29T09:58:27.349Z,1.30
2023-01-29T10:01:19.043Z,1.36
2023-01-29T10:04:02.542Z,1.42
2023-01-29T10:06:55.900Z,1.48
2023-01-29T10:09:57.533Z,1.53
2023-01-29T10:12:46.778Z,1.56
2023-01-29T10:15:43.016Z,1.59
2023-01-29T10:18:48.473Z,1.59
2023-01-29T10:21:50.978Z,1.60
2023-01-29T10:24:35.517Z,1.63
2023-01-29T10:27:12.209Z,1.63
2023-01-29T10:29:43.450Z,1.62
2023-01-29T10:32:18.493Z,1.60
2023-01-29T10:35:13.909Z,1.58
2023-01-29T10:37:43.928Z,1.48
2023-01-29T10:40:25.639Z,1.45
2023-01-29T10:43:11.114Z,1.48
2023-01-29T10:46:14.653Z,1.49
2023-01-29T10:48:54.699Z,1.51
2023-01-29T10:51:42.768Z,1.51
2023-01-29T10:54:18.704Z,1.51
2023-01-29T10:57:31.219Z,1.52
2023-01-29T11:00:21.668Z,1.44
2023-01-29T11:02:51.783Z,1.33
2023-01-29T11:05:44.418Z,1.16
2023-01-29T11:08:21.789Z,1.02
2023-01-29T11:10:57.289Z,0.85
2023-01-29T11:13:32.685Z,0.71
2023-01-29T11:16:00.940Z,0.59
2023-01-29T11:18:49.159Z,0.52
2023-01-29T11:21:17.469Z,0.46
2023-01-29T11:23:46.542Z,0.43
2023-01-29T11:26:22.474Z,0.42
2023-01-29T11:28:51.541Z,0.42
2023-01-29T11:31:26.199Z,0.42
2023-01-29T11:34:04.457Z,0.40
2023-01-29T11:36:38.365Z,0.39
2023-01-29T11:39:17.541Z,0.40
2023-01-29T11:42:08.300Z,0.41
2023-01-29T11:44:43.068Z,0.40
2023-01-29T11:47:29.556Z,0.38
2023-01-29T11:50:02.756Z,0.38
2023-01-29T11:52:40.322Z,0.40
2023-01-29T11:55:21.470Z,0.42
2023-01-29T11:58:29.547Z,0.46
2023-01-29T12:00:59.996Z,0.55
2023-01-29T12:03:40.662Z,0.63
2023-01-29T12:06:32.906Z,0.69
2023-01-29T12:09:03.926Z,0.73
2023-01-29T12:11:35.493Z,0.77
2023-01-29T12:14:22.294Z,0.82
2023-01-29T12:16:55.418Z,0.81
2023-01-29T12:19:44.270Z,0.79
2023-01-29T12:22:33.184Z,0.75
2023-01-29T12:25:13.352Z,0.69
2023-01-29T12:28:09.570Z,0.67
2023-01-29T12:30:53.904Z,0.63
2023-01-29T12:33:38.390Z,0.61
2023-01-29T12:36:53.085Z,0.62
2023-01-29T12:39:21.934Z,0.64
2023-01-29T12:42:04.452Z,0.62
2023-01-29T12:44:43.623Z,0.60
2023-01-29T12:47:25.240Z,0.59
2023-01-29T12:50:01.247Z,0.54
2023-01-29T12:53:06.108Z,0.48
2023-01-29T12:55:44.700Z,0.39
2023-01-29T12:58:18.210Z,0.35
2023-01-29T13:00:51.039Z,0.30
2023-01-29T13:03:25.335Z,0.27
2023-01-29T13:06:02.595Z,0.32
2023-01-29T13:08:37.637Z,0.36
2023-01-29T13:11:18.188Z,0.38
2023-01-29T13:14:03.503Z,0.39
2023-01-29T13:16:40.880Z,0.45
2023-01-29T13:19:43.457Z,0.52
2023-01-29T13:22:26.274Z,0.56
2023-01-29T13:25:04.104Z,0.60
2023-01-29T13:27:35.527Z,0.60
2023-01-29T13:30:04.775Z,0.57
2023-01-29T13:32:35.946Z,0.55
2023-01-29T13:35:15.439Z,0.57
2023-01-29T13:37:55.437Z,0.60
2023-01-29T13:40:30.319Z,0.62
2023-01-29T13:43:00.395Z,0.65
2023-01-29T13:45:43.755Z,0.72
2023-01-29T13:48:32.553Z,0.78
2023-01-29T13:51:03.912Z,0.83
2023-01-29T13:53:40.632Z,0.89
2023-01-29T13:56:33.477Z,0.94
2023-01-29T13:59:06.589Z,1.01
2023-01-29T14:01:47.135Z,1.05
2023-01-29T14:04:32.497Z,1.08
2023-01-29T14:07:06.563Z,1.11
2023-01-29T14:09:37.611Z,1.12
2023-01-29T14:12:25.643Z,1.12
2023-01-29T14:14:59.514Z,1.14
2023-01-29T14:17:29.237Z,1.15
2023-01-29T14:20:19.223Z,1.12
2023-01-29T14:22:57.754Z,1.14
2023-01-29T14:25:38.998Z,1.13
2023-01-29T14:28:29.524Z,1.06
2023-01-29T14:30:59.101Z,1.07
2023-01-29T14:33:41.727Z,1.10
2023-01-29T14:36:14.836Z,1.12
2023-01-29T14:38:52.672Z,1.11
2023-01-29T14:41:34.665Z,1.10
2023-01-29T14:44:55.973Z,1.09
2023-01-29T14:47:27.192Z,1.10
2023-01-29T14:49:58.529Z,1.07
2023-01-29T14:52:41.668Z,1.05
2023-01-29T14:55:37.686Z,1.05
2023-01-29T14:58:11.615Z,1.02
2023-01-29T15:00:45.021Z,0.98
2023-01-29T15:03:29.665Z,0.89
2023-01-29T15:05:59.546Z,0.84
2023-01-29T15:08:40.680Z,0.77
2023-01-29T15:11:36.509Z,0.77
2023-01-29T15:14:28.830Z,0.77
2023-01-29T15:17:09.169Z,0.75
2023-01-29T15:19:48.598Z,0.74
2023-01-29T15:22:23.300Z,0.75
2023-01-29T15:25:15.355Z,0.76
2023-01-29T15:27:45.547Z,0.79
2023-01-29T15:30:33.051Z,0.80
2023-01-29T15:33:03.162Z,0.81
2023-01-29T15:35:37.283Z,0.81
2023-01-29T15:38:18.342Z,0.80
2023-01-29T15:41:21.433Z,0.76
2023-01-29T15:43:57.154Z,0.75
2023-01-29T15:46:40.370Z,0.69
2023-01-29T15:49:16.588Z,0.65
2023-01-29T15:51:46.449Z,0.61
2023-01-29T15:54:17.153Z,0.56
2023-01-29T15:56:51.187Z,0.51
2023-01-29T15:59:25.258Z,0.48
2023-01-29T16:01:54.380Z,0.43
2023-01-29T16:04:31.435Z,0.37
2023-01-29T16:07:01.789Z,0.32
2023-01-29T16:09:30.144Z,0.28
2023-01-29T16:11:59.696Z,0.25
2023-01-29T16:14:28.701Z,0.21
2023-01-29T16:16:56.879Z,0.16
2023-01-29T16:19:29.619Z,0.13
2023-01-29T16:22:05.388Z,0.09
2023-01-29T16:24:37.244Z,0.06
2023-01-29T16:27:14.369Z,0.02
2023-01-29T16:29:42.508Z,0.00
2023-01-29T16:32:13.786Z,-0.02
2023-01-29T16:34:45.531Z,-0.03
2023-01-29T16:37:38.959Z,-0.06
2023-01-29T16:40:33.069Z,-0.08
2023-01-29T16:43:19.887Z,-0.14
2023-01-29T16:46:52.263Z,-0.19
2023-01-29T16:49:29.163Z,-0.23
2023-01-29T16:52:27.980Z,-0.24
2023-01-29T16:55:12.090Z,-0.30
2023-01-29T16:57:41.262Z,-0.38
2023-01-29T17:00:22.980Z,-0.41
2023-01-29T17:02:56.414Z,-0.41
2023-01-29T17:05:35.641Z,-0.41
2023-01-29T17:08:05.845Z,-0.40
2023-01-29T17:10:35.994Z,-0.42
2023-01-29T17:13:08.843Z,-0.46
2023-01-29T17:15:45.849Z,-0.50
2023-01-29T17:18:25.103Z,-0.56
2023-01-29T17:20:53.684Z,-0.57
2023-01-29T17:23:23.111Z,-0.56
2023-01-29T17:25:51.906Z,-0.54
2023-01-29T17:28:20.014Z,-0.53
2023-01-29T17:31:00.355Z,-0.53
2023-01-29T17:33:42.752Z,-0.53
2023-01-29T17:36:13.953Z,-0.51
2023-01-29T17:38:42.530Z,-0.49
2023-01-29T17:41:25.915Z,-0.50
2023-01-29T17:43:54.029Z,-0.51
2023-01-29T17:46:22.865Z,-0.53
2023-01-29T17:48:51.248Z,-0.54
2023-01-29T17:51:19.836Z,-0.54
2023-01-29T17:53:47.921Z,-0.54
2023-01-29T17:56:30.287Z,-0.54
2023-01-29T17:58:58.527Z,-0.53
2023-01-29T18:01:26.711Z,-0.53
2023-01-29T18:03:54.881Z,-0.53
2023-01-29T18:06:29.935Z,-0.52
2023-01-29T18:08:58.559Z,-0.52
2023-01-29T18:11:27.196Z,-0.53
2023-01-29T18:13:57.288Z,-0.54
2023-01-29T18:16:25.974Z,-0.55
2023-01-29T18:18:55.060Z,-0.55
2023-01-29T18:21:23.204Z,-0.56
2023-01-29T18:23:53.467Z,-0.56
2023-01-29T18:26:22.750Z,-0.56
2023-01-29T18:28:50.901Z,-0.57
2023-01-29T18:31:19.059Z,-0.56
2023-01-29T18:33:47.472Z,-0.56
2023-01-29T18:36:15.748Z,-0.55
2023-01-29T18:38:43.891Z,-0.56
2023-01-29T18:41:12.133Z,-0.58
2023-01-29T18:43:41.995Z,-0.58
2023-01-29T18:46:10.725Z,-0.57
2023-01-29T18:48:40.438Z,-0.58
2023-01-29T18:51:09.983Z,-0.59
2023-01-29T18:53:38.132Z,-0.61
2023-01-29T18:56:06.817Z,-0.61
2023-01-29T18:58:36.628Z,-0.62
2023-01-29T19:01:11.674Z,-0.66
2023-01-29T19:03:41.489Z,-0.67
2023-01-29T19:06:11.671Z,-0.70
2023-01-29T19:08:41.188Z,-0.71
2023-01-29T19:11:09.733Z,-0.72
2023-01-29T19:13:38.169Z,-0.73
2023-01-29T19:16:10.846Z,-0.74
2023-01-29T19:18:39.470Z,-0.75
2023-01-29T19:21:13.983Z,-0.77
2023-01-29T19:23:43.707Z,-0.76
2023-01-29T19:26:13.464Z,-0.75
2023-01-29T19:28:41.987Z,-0.76
2023-01-29T19:31:10.469Z,-0.78
2023-01-29T19:33:39.425Z,-0.80
2023-01-29T19:36:08.155Z,-0.83
2023-01-29T19:38:38.691Z,-0.86
2023-01-29T19:41:06.948Z,-0.85
2023-01-29T19:43:35.242Z,-0.85
2023-01-29T19:46:03.513Z,-0.90
2023-01-29T19:48:31.662Z,-0.95
2023-01-29T19:51:04.349Z,-0.95
2023-01-29T19:53:32.640Z,-0.95
2023-01-29T19:56:13.275Z,-0.94
2023-01-29T19:58:41.780Z,-0.95
2023-01-29T20:01:17.949Z,-0.97
2023-01-29T20:03:48.640Z,-0.95
2023-01-29T20:06:24.543Z,-0.93
2023-01-29T20:08:53.301Z,-0.93
2023-01-29T20:11:22.992Z,-0.93
2023-01-29T20:13:52.741Z,-0.94
2023-01-29T20:16:22.059Z,-0.92
2023-01-29T20:18:50.261Z,-0.92
2023-01-29T20:21:21.950Z,-0.93
2023-01-29T20:23:51.734Z,-0.93
2023-01-29T20:26:21.549Z,-0.91
2023-01-29T20:28:50.069Z,-0.95
2023-01-29T20:31:18.223Z,-0.97
2023-01-29T20:33:46.436Z,-1.01
2023-01-29T20:36:15.028Z,-1.05
2023-01-29T20:38:43.157Z,-1.07
2023-01-29T20:41:17.806Z,-1.08
2023-01-29T20:43:47.354Z,-1.10
2023-01-29T20:46:15.701Z,-1.10
2023-01-29T20:48:43.951Z,-1.11
2023-01-29T20:51:16.514Z,-1.13
2023-01-29T20:53:47.003Z,-1.15
2023-01-29T20:56:17.283Z,-1.17
2023-01-29T20:58:46.849Z,-1.20
2023-01-29T21:01:19.254Z,-1.21
2023-01-29T21:03:48.405Z,-1.20
2023-01-29T21:06:16.575Z,-1.20
2023-01-29T21:08:44.710Z,-1.23
2023-01-29T21:11:12.838Z,-1.26
2023-01-29T21:13:41.054Z,-1.26
2023-01-29T21:16:10.852Z,-1.27
2023-01-29T21:18:39.176Z,-1.29
2023-01-29T21:21:07.288Z,-1.30
2023-01-29T21:23:35.420Z,-1.33
2023-01-29T21:26:06.768Z,-1.34
2023-01-29T21:28:35.032Z,-1.34
2023-01-29T21:31:10.707Z,-1.35
2023-01-29T21:33:38.878Z,-1.36
2023-01-29T21:36:08.456Z,-1.37
2023-01-29T21:38:37.031Z,-1.42
2023-01-29T21:41:08.993Z,-1.48
2023-01-29T21:43:38.205Z,-1.56
2023-01-29T21:46:15.560Z,-1.60
2023-01-29T21:48:43.768Z,-1.60
2023-01-29T21:51:11.864Z,-1.63
2023-01-29T21:53:39.998Z,-1.71
2023-01-29T21:56:08.196Z,-1.75
2023-01-29T21:58:36.322Z,-1.79
2023-01-29T22:01:35.161Z,-1.82
2023-01-29T22:03:52.755Z,-1.87
2023-01-29T22:06:21.022Z,-1.92
2023-01-29T22:08:50.259Z,-1.93
2023-01-29T22:11:18.666Z,-1.92
2023-01-29T22:13:47.156Z,-1.92
2023-01-29T22:16:15.253Z,-1.90
2023-01-29T22:18:43.373Z,-1.86
2023-01-29T22:21:11.481Z,-1.82
2023-01-29T22:23:39.583Z,-1.79
2023-01-29T22:26:09.920Z,-1.75
2023-01-29T22:28:38.134Z,-1.72
2023-01-29T22:31:06.538Z,-1.70
2023-01-29T22:33:35.112Z,-1.68
2023-01-29T22:36:04.476Z,-1.66
2023-01-29T22:38:32.627Z,-1.63
2023-01-29T22:41:01.354Z,-1.62
2023-01-29T22:43:29.530Z,-1.60
2023-01-29T22:45:57.847Z,-1.57
2023-01-29T22:48:26.869Z,-1.56
2023-01-29T22:51:13.728Z,-1.55
2023-01-29T22:53:51.317Z,-1.53
2023-01-29T22:56:21.551Z,-1.51
2023-01-29T22:58:55.142Z,-1.50
2023-01-29T23:01:28.398Z,-1.49
2023-01-29T23:03:56.949Z,-1.47
2023-01-29T23:06:25.177Z,-1.46
2023-01-29T23:08:53.544Z,-1.46
2023-01-29T23:11:23.552Z,-1.44
2023-01-29T23:13:55.493Z,-1.44
2023-01-29T23:16:27.971Z,-1.44
2023-01-29T23:18:57.249Z,-1.44
2023-01-29T23:21:27.248Z,-1.44
2023-01-29T23:23:58.263Z,-1.44
2023-01-29T23:26:46.315Z,-1.44
2023-01-29T23:29:15.216Z,-1.43
2023-01-29T23:31:43.416Z,-1.43
2023-01-29T23:34:11.623Z,-1.42
2023-01-29T23:36:39.850Z,-1.42
2023-01-29T23:39:08.821Z,-1.42
2023-01-29T23:41:37.074Z,-1.43
2023-01-29T23:44:05.360Z,-1.43
2023-01-29T23:46:33.630Z,-1.43
2023-01-29T23:49:02.058Z,-1.42
2023-01-29T23:51:30.336Z,-1.42
2023-01-29T23:53:58.452Z,-1.41
2023-01-29T23:56:26.738Z,-1.40
2023-01-29T23:58:57.198Z,-1.40
